createdAt,value
2018-09-18T00:00:44.878Z,17.80
2018-09-18T00:03:15.401Z,17.70
2018-09-18T00:05:46.057Z,17.70
2018-09-18T00:08:15.612Z,17.60
2018-09-18T00:10:45.254Z,17.60
2018-09-18T00:13:14.775Z,17.50
2018-09-18T00:15:44.209Z,17.50
2018-09-18T00:18:13.889Z,17.40
2018-09-18T00:20:43.874Z,17.40
2018-09-18T00:23:13.486Z,17.40
2018-09-18T00:25:43.709Z,17.50
2018-09-18T00:28:13.833Z,17.50
2018-09-18T00:30:44.005Z,17.50
2018-09-18T00:33:13.905Z,17.50
2018-09-18T00:35:44.135Z,17.50
2018-09-18T00:38:14.403Z,17.40
2018-09-18T00:40:43.746Z,17.40
2018-09-18T00:43:13.211Z,17.40
2018-09-18T00:45:42.625Z,17.30
2018-09-18T00:48:12.597Z,17.30
2018-09-18T00:50:43.013Z,17.20
2018-09-18T00:53:12.048Z,17.20
2018-09-18T00:55:41.599Z,17.10
2018-09-18T00:58:11.402Z,17.10
2018-09-18T01:00:42.059Z,17.10
2018-09-18T01:03:11.740Z,17.10
2018-09-18T01:05:41.482Z,17.10
2018-09-18T01:08:12.007Z,17.00
2018-09-18T01:10:41.213Z,17.00
2018-09-18T01:13:11.173Z,17.00
2018-09-18T01:15:41.005Z,16.90
2018-09-18T01:18:09.843Z,16.90
2018-09-18T01:20:41.066Z,16.80
2018-09-18T01:23:11.227Z,16.80
2018-09-18T01:25:40.572Z,16.80
2018-09-18T01:28:11.252Z,16.90
2018-09-18T01:30:41.052Z,16.90
2018-09-18T01:33:10.768Z,16.90
2018-09-18T01:35:41.011Z,16.90
2018-09-18T01:38:10.617Z,16.90
2018-09-18T01:40:40.205Z,16.90
2018-09-18T01:43:10.476Z,16.80
2018-09-18T01:45:40.502Z,16.80
2018-09-18T01:48:09.986Z,16.90
2018-09-18T01:50:38.916Z,16.90
2018-09-18T01:53:07.916Z,16.90
2018-09-18T01:55:37.336Z,16.90
2018-09-18T01:58:06.512Z,16.90
2018-09-18T02:00:35.738Z,16.90
2018-09-18T02:03:05.359Z,16.90
2018-09-18T02:05:34.419Z,16.90
2018-09-18T02:08:04.665Z,16.90
2018-09-18T02:10:34.604Z,16.90
2018-09-18T02:13:04.459Z,16.90
2018-09-18T02:15:33.431Z,16.80
2018-09-18T02:18:02.455Z,16.70
2018-09-18T02:20:31.827Z,16.70
2018-09-18T02:23:00.677Z,16.60
2018-09-18T02:25:29.557Z,16.60
2018-09-18T02:27:58.501Z,16.60
2018-09-18T02:30:27.850Z,16.50
2018-09-18T02:32:56.908Z,16.50
2018-09-18T02:35:26.459Z,16.50
2018-09-18T02:37:55.479Z,16.50
2018-09-18T02:40:24.829Z,16.50
2018-09-18T02:42:54.185Z,16.50
2018-09-18T02:45:23.537Z,16.60
2018-09-18T02:47:52.693Z,16.50
2018-09-18T02:50:22.091Z,16.50
2018-09-18T02:52:51.150Z,16.50
2018-09-18T02:55:20.739Z,16.50
2018-09-18T02:57:49.738Z,16.40
2018-09-18T03:00:18.775Z,16.40
2018-09-18T03:02:48.162Z,16.40
2018-09-18T03:05:17.331Z,16.30
2018-09-18T03:07:46.560Z,16.20
2018-09-18T03:10:15.727Z,16.30
2018-09-18T03:12:45.631Z,16.20
2018-09-18T03:15:15.228Z,16.20
2018-09-18T03:17:45.052Z,16.20
2018-09-18T03:20:14.617Z,16.20
2018-09-18T03:22:45.091Z,16.20
2018-09-18T03:25:14.280Z,16.20
2018-09-18T03:27:44.433Z,16.20
2018-09-18T03:30:13.737Z,16.20
2018-09-18T03:32:42.903Z,16.30
2018-09-18T03:35:12.476Z,16.30
2018-09-18T03:37:42.663Z,16.30
2018-09-18T03:40:11.472Z,16.20
2018-09-18T03:42:41.317Z,16.20
2018-09-18T03:45:11.458Z,16.20
2018-09-18T03:47:41.338Z,16.20
2018-09-18T03:50:11.274Z,16.10
2018-09-18T03:52:40.786Z,16.10
2018-09-18T03:55:10.373Z,16.10
2018-09-18T03:57:39.491Z,16.00
2018-09-18T04:00:08.474Z,15.90
2018-09-18T04:02:38.574Z,15.90
2018-09-18T04:05:08.678Z,15.80
2018-09-18T04:07:37.826Z,15.80
2018-09-18T04:10:07.317Z,15.80
2018-09-18T04:12:36.313Z,15.80
2018-09-18T04:15:05.835Z,15.80
2018-09-18T04:17:35.052Z,15.70
2018-09-18T04:20:03.965Z,15.70
2018-09-18T04:22:33.304Z,15.70
2018-09-18T04:25:02.615Z,15.70
2018-09-18T04:27:31.734Z,15.70
2018-09-18T04:30:01.005Z,15.60
2018-09-18T04:32:30.520Z,15.70
2018-09-18T04:34:59.675Z,15.70
2018-09-18T04:37:29.594Z,15.70
2018-09-18T04:39:59.351Z,15.70
2018-09-18T04:42:28.844Z,15.80
2018-09-18T04:44:58.170Z,15.70
2018-09-18T04:47:27.146Z,15.70
2018-09-18T04:49:56.036Z,15.60
2018-09-18T04:52:24.935Z,15.60
2018-09-18T04:54:54.075Z,15.60
2018-09-18T04:57:23.434Z,15.60
2018-09-18T04:59:52.652Z,15.60
2018-09-18T05:02:22.184Z,15.70
2018-09-18T05:04:51.312Z,15.80
2018-09-18T05:07:20.324Z,15.80
2018-09-18T05:09:49.470Z,15.90
2018-09-18T05:12:18.442Z,15.90
2018-09-18T05:14:47.908Z,16.00
2018-09-18T05:17:17.184Z,16.10
2018-09-18T05:19:47.752Z,16.10
2018-09-18T05:22:17.528Z,16.10
2018-09-18T05:24:47.251Z,16.20
2018-09-18T05:27:17.368Z,16.20
2018-09-18T05:29:46.740Z,16.20
2018-09-18T05:32:16.328Z,16.30
2018-09-18T05:34:46.030Z,16.30
2018-09-18T05:37:16.159Z,16.50
2018-09-18T05:39:45.858Z,16.70
2018-09-18T05:42:15.216Z,16.90
2018-09-18T05:44:45.232Z,17.30
2018-09-18T05:47:15.274Z,17.60
2018-09-18T05:49:45.498Z,18.20
2018-09-18T05:52:15.183Z,18.80
2018-09-18T05:54:44.580Z,19.60
2018-09-18T05:57:14.176Z,20.40
2018-09-18T05:59:50.858Z,20.80
2018-09-18T06:02:20.555Z,21.20
2018-09-18T06:04:49.720Z,21.40
2018-09-18T06:07:19.325Z,21.20
2018-09-18T06:09:49.286Z,21.40
2018-09-18T06:12:18.676Z,21.70
2018-09-18T06:14:48.134Z,21.90
2018-09-18T06:17:18.187Z,21.50
2018-09-18T06:19:47.982Z,21.30
2018-09-18T06:22:17.671Z,21.60
2018-09-18T06:24:49.694Z,21.40
2018-09-18T06:27:20.153Z,21.70
2018-09-18T06:29:49.492Z,22.00
2018-09-18T06:32:19.283Z,22.60
2018-09-18T06:34:48.774Z,22.70
2018-09-18T06:37:18.123Z,22.60
2018-09-18T06:39:47.400Z,22.80
2018-09-18T06:42:17.308Z,23.30
2018-09-18T06:44:47.990Z,23.40
2018-09-18T06:47:17.862Z,23.80
2018-09-18T06:49:47.545Z,23.90
2018-09-18T06:52:17.370Z,24.10
2018-09-18T06:54:47.414Z,24.70
2018-09-18T06:57:17.149Z,25.20
2018-09-18T06:59:46.409Z,25.40
2018-09-18T07:02:16.141Z,25.90
2018-09-18T07:04:46.448Z,26.80
2018-09-18T07:07:16.360Z,27.40
2018-09-18T07:09:46.515Z,27.00
2018-09-18T07:12:16.775Z,27.10
2018-09-18T07:14:46.488Z,27.60
2018-09-18T07:17:17.259Z,27.30
2018-09-18T07:19:47.605Z,27.20
2018-09-18T07:22:17.183Z,27.10
2018-09-18T07:24:47.402Z,26.90
2018-09-18T07:27:17.354Z,27.00
2018-09-18T07:29:46.343Z,26.50
2018-09-18T07:32:16.642Z,26.30
2018-09-18T07:34:46.060Z,26.20
2018-09-18T07:37:15.415Z,26.30
2018-09-18T07:39:44.752Z,26.60
2018-09-18T07:42:14.894Z,26.40
2018-09-18T07:44:45.844Z,26.00
2018-09-18T07:47:16.276Z,26.40
2018-09-18T07:49:46.816Z,27.00
2018-09-18T07:52:17.404Z,27.90
2018-09-18T07:54:48.568Z,28.80
2018-09-18T07:57:18.071Z,30.30
2018-09-18T07:59:48.270Z,31.40
2018-09-18T08:02:17.970Z,32.00
2018-09-18T08:04:47.920Z,33.10
2018-09-18T08:07:17.422Z,34.30
2018-09-18T08:09:47.305Z,35.20
2018-09-18T08:12:16.963Z,36.10
2018-09-18T08:14:46.909Z,36.70
2018-09-18T08:17:18.221Z,37.20
2018-09-18T08:19:48.205Z,37.20
2018-09-18T08:22:18.285Z,37.20
2018-09-18T08:24:48.092Z,38.20
2018-09-18T08:27:19.010Z,38.40
2018-09-18T08:29:48.539Z,39.10
2018-09-18T08:32:17.780Z,39.30
2018-09-18T08:34:46.994Z,38.80
2018-09-18T08:37:17.339Z,38.90
2018-09-18T08:39:48.046Z,38.30
2018-09-18T08:42:18.989Z,37.70
2018-09-18T08:44:48.862Z,37.10
2018-09-18T08:47:18.454Z,38.00
2018-09-18T08:49:48.521Z,37.00
2018-09-18T08:52:17.823Z,36.60
2018-09-18T08:54:47.377Z,36.60
2018-09-18T08:57:17.244Z,36.10
2018-09-18T08:59:47.566Z,36.20
2018-09-18T09:02:17.065Z,36.60
2018-09-18T09:04:47.170Z,36.30
2018-09-18T09:07:18.274Z,35.80
2018-09-18T09:09:49.383Z,35.30
2018-09-18T09:12:20.037Z,34.50
2018-09-18T09:14:50.814Z,33.80
2018-09-18T09:17:22.043Z,33.00
2018-09-18T09:19:51.795Z,31.50
2018-09-18T09:22:22.028Z,30.50
2018-09-18T09:24:52.304Z,29.70
2018-09-18T09:27:22.459Z,29.30
2018-09-18T09:29:52.626Z,28.80
2018-09-18T09:32:22.738Z,28.20
2018-09-18T09:34:53.420Z,27.90
2018-09-18T09:37:23.644Z,27.60
2018-09-18T09:39:53.127Z,27.60
2018-09-18T09:42:22.787Z,27.80
2018-09-18T09:44:52.611Z,27.90
2018-09-18T09:47:22.590Z,27.80
2018-09-18T09:49:53.256Z,27.50
2018-09-18T09:52:23.617Z,27.30
2018-09-18T09:54:53.392Z,27.30
2018-09-18T09:57:23.179Z,27.10
2018-09-18T09:59:52.837Z,27.20
2018-09-18T10:02:28.564Z,27.20
2018-09-18T10:04:58.935Z,27.20
2018-09-18T10:07:28.745Z,27.30
2018-09-18T10:09:58.792Z,27.40
2018-09-18T10:12:28.548Z,27.40
2018-09-18T10:14:58.411Z,27.50
2018-09-18T10:17:28.026Z,27.60
2018-09-18T10:19:58.215Z,27.60
2018-09-18T10:22:27.835Z,27.60
2018-09-18T10:24:57.648Z,27.60
2018-09-18T10:27:27.496Z,27.80
2018-09-18T10:29:57.852Z,27.80
2018-09-18T10:32:27.827Z,27.80
2018-09-18T10:34:58.005Z,27.90
2018-09-18T10:37:28.582Z,27.80
2018-09-18T10:39:59.012Z,27.80
2018-09-18T10:42:28.943Z,27.80
2018-09-18T10:44:59.179Z,27.90
2018-09-18T10:47:29.457Z,28.00
2018-09-18T10:49:59.559Z,28.00
2018-09-18T10:52:30.104Z,28.00
2018-09-18T10:55:00.215Z,28.10
2018-09-18T10:57:30.313Z,28.20
2018-09-18T11:00:00.847Z,28.20
2018-09-18T11:02:30.505Z,28.30
2018-09-18T11:05:00.372Z,28.30
2018-09-18T11:07:30.211Z,28.30
2018-09-18T11:10:00.417Z,28.40
2018-09-18T11:12:30.335Z,28.30
2018-09-18T11:15:00.739Z,28.30
2018-09-18T11:17:30.783Z,28.30
2018-09-18T11:20:00.592Z,28.30
2018-09-18T11:22:30.605Z,28.30
2018-09-18T11:25:01.000Z,28.20
2018-09-18T11:27:30.863Z,28.20
2018-09-18T11:30:00.382Z,28.30
2018-09-18T11:32:30.362Z,28.30
2018-09-18T11:35:00.244Z,28.30
2018-09-18T11:37:29.988Z,28.30
2018-09-18T11:39:59.543Z,28.30
2018-09-18T11:42:29.218Z,28.30
2018-09-18T11:44:58.997Z,28.30
2018-09-18T11:47:28.627Z,28.40
2018-09-18T11:49:58.064Z,28.40
2018-09-18T11:52:27.600Z,28.30
2018-09-18T11:54:57.510Z,28.20
2018-09-18T11:57:26.936Z,28.20
2018-09-18T11:59:56.498Z,28.20
2018-09-18T12:02:26.250Z,28.20
2018-09-18T12:04:55.963Z,28.20
2018-09-18T12:07:25.649Z,28.20
2018-09-18T12:09:55.242Z,28.20
2018-09-18T12:12:25.006Z,28.10
2018-09-18T12:14:55.007Z,28.10
2018-09-18T12:17:24.494Z,28.10
2018-09-18T12:19:54.118Z,28.00
2018-09-18T12:22:23.896Z,28.00
2018-09-18T12:24:53.684Z,27.90
2018-09-18T12:27:23.506Z,27.90
2018-09-18T12:29:53.161Z,27.90
2018-09-18T12:32:23.167Z,28.00
2018-09-18T12:34:52.718Z,28.00
2018-09-18T12:37:22.319Z,27.90
2018-09-18T12:39:52.446Z,27.80
2018-09-18T12:42:22.143Z,27.80
2018-09-18T12:44:52.148Z,27.80
2018-09-18T12:47:22.305Z,27.80
2018-09-18T12:49:52.373Z,27.80
2018-09-18T12:52:22.692Z,27.90
2018-09-18T12:54:52.552Z,27.90
2018-09-18T12:57:22.814Z,27.80
2018-09-18T12:59:53.247Z,27.80
2018-09-18T13:02:24.325Z,27.80
2018-09-18T13:04:54.172Z,27.70
2018-09-18T13:07:24.100Z,27.80
2018-09-18T13:09:54.383Z,27.80
2018-09-18T13:12:24.630Z,27.80
2018-09-18T13:14:55.106Z,27.80
2018-09-18T13:17:25.528Z,27.90
2018-09-18T13:19:55.455Z,28.00
2018-09-18T13:22:25.412Z,28.10
2018-09-18T13:24:55.488Z,28.10
2018-09-18T13:27:25.145Z,28.10
2018-09-18T13:29:55.713Z,28.00
2018-09-18T13:32:25.505Z,28.10
2018-09-18T13:34:55.685Z,28.00
2018-09-18T13:37:26.715Z,28.00
2018-09-18T13:39:56.920Z,27.90
2018-09-18T13:42:27.085Z,27.90
2018-09-18T13:44:57.180Z,28.00
2018-09-18T13:47:27.303Z,28.00
2018-09-18T13:49:57.225Z,28.00
2018-09-18T13:52:27.071Z,28.10
2018-09-18T13:54:56.783Z,28.10
2018-09-18T13:57:26.576Z,28.20
2018-09-18T13:59:56.525Z,28.30
2018-09-18T14:02:26.968Z,28.20
2018-09-18T14:04:57.173Z,28.20
2018-09-18T14:07:26.673Z,28.30
2018-09-18T14:09:56.308Z,28.30
2018-09-18T14:12:25.908Z,28.30
2018-09-18T14:14:55.341Z,28.30
2018-09-18T14:17:25.071Z,28.30
2018-09-18T14:19:54.672Z,28.30
2018-09-18T14:22:25.092Z,28.20
2018-09-18T14:24:54.556Z,28.20
2018-09-18T14:27:24.313Z,28.20
2018-09-18T14:29:53.914Z,28.20
2018-09-18T14:32:23.436Z,28.20
2018-09-18T14:34:54.090Z,28.10
2018-09-18T14:37:24.565Z,28.20
2018-09-18T14:39:54.270Z,28.30
2018-09-18T14:42:23.688Z,28.20
2018-09-18T14:44:53.190Z,28.20
2018-09-18T14:47:22.915Z,28.20
2018-09-18T14:49:52.372Z,28.20
2018-09-18T14:52:22.114Z,28.20
2018-09-18T14:54:51.558Z,28.30
2018-09-18T14:57:20.970Z,28.30
2018-09-18T14:59:50.383Z,28.30
2018-09-18T15:02:20.082Z,28.30
2018-09-18T15:04:49.737Z,28.30
2018-09-18T15:07:20.263Z,28.30
2018-09-18T15:09:50.941Z,28.20
2018-09-18T15:12:20.741Z,28.30
2018-09-18T15:14:50.834Z,28.20
2018-09-18T15:17:21.666Z,28.20
2018-09-18T15:19:51.906Z,28.20
2018-09-18T15:22:21.560Z,28.20
2018-09-18T15:24:51.856Z,28.20
2018-09-18T15:27:21.698Z,28.20
2018-09-18T15:29:51.639Z,28.20
2018-09-18T15:32:21.809Z,28.20
2018-09-18T15:34:51.508Z,28.10
2018-09-18T15:37:21.810Z,28.10
2018-09-18T15:39:51.959Z,28.10
2018-09-18T15:42:22.098Z,28.10
2018-09-18T15:44:52.154Z,28.10
2018-09-18T15:47:22.454Z,28.10
2018-09-18T15:49:52.327Z,28.00
2018-09-18T15:52:22.534Z,28.00
2018-09-18T15:54:52.687Z,28.00
2018-09-18T15:57:23.054Z,28.00
2018-09-18T15:59:53.243Z,28.00
2018-09-18T16:02:23.720Z,27.90
2018-09-18T16:04:53.641Z,27.90
2018-09-18T16:07:24.832Z,27.90
2018-09-18T16:09:54.535Z,27.90
2018-09-18T16:12:25.356Z,27.80
2018-09-18T16:14:55.325Z,27.80
2018-09-18T16:17:25.147Z,27.70
2018-09-18T16:19:55.288Z,27.70
2018-09-18T16:22:25.437Z,27.70
2018-09-18T16:24:55.816Z,27.60
2018-09-18T16:27:27.472Z,27.60
2018-09-18T16:29:57.210Z,27.50
2018-09-18T16:32:27.496Z,27.50
2018-09-18T16:34:57.494Z,27.40
2018-09-18T16:37:27.234Z,27.30
2018-09-18T16:39:57.272Z,27.30
2018-09-18T16:42:27.761Z,27.30
2018-09-18T16:44:57.725Z,27.20
2018-09-18T16:47:28.245Z,27.20
2018-09-18T16:49:57.999Z,27.00
2018-09-18T16:52:28.094Z,27.00
2018-09-18T16:54:58.132Z,26.90
2018-09-18T16:57:27.986Z,26.90
2018-09-18T16:59:57.762Z,26.80
2018-09-18T17:02:28.045Z,26.80
2018-09-18T17:04:59.240Z,26.70
2018-09-18T17:07:28.903Z,26.60
2018-09-18T17:09:58.672Z,26.50
2018-09-18T17:12:28.431Z,26.40
2018-09-18T17:14:57.652Z,26.40
2018-09-18T17:17:27.312Z,26.30
2018-09-18T17:19:57.116Z,26.20
2018-09-18T17:22:26.045Z,26.10
2018-09-18T17:24:54.964Z,26.00
2018-09-18T17:27:24.190Z,26.00
2018-09-18T17:29:53.269Z,25.90
2018-09-18T17:32:22.663Z,25.80
2018-09-18T17:34:51.989Z,25.80
2018-09-18T17:37:21.149Z,25.80
2018-09-18T17:39:50.258Z,25.70
2018-09-18T17:42:19.554Z,25.60
2018-09-18T17:44:48.883Z,25.50
2018-09-18T17:47:18.100Z,25.50
2018-09-18T17:49:47.453Z,25.40
2018-09-18T17:52:16.763Z,25.30
2018-09-18T17:54:47.166Z,25.30
2018-09-18T17:57:16.927Z,25.20
2018-09-18T17:59:46.546Z,25.20
2018-09-18T18:02:17.436Z,25.20
2018-09-18T18:04:46.982Z,25.20
2018-09-18T18:07:18.095Z,25.20
2018-09-18T18:09:47.758Z,25.10
2018-09-18T18:12:17.296Z,25.10
2018-09-18T18:14:46.971Z,25.10
2018-09-18T18:17:16.306Z,25.00
2018-09-18T18:19:45.735Z,25.00
2018-09-18T18:22:16.553Z,24.90
2018-09-18T18:24:46.528Z,24.90
2018-09-18T18:27:17.103Z,24.90
2018-09-18T18:29:48.829Z,24.80
2018-09-18T18:32:19.143Z,24.80
2018-09-18T18:34:49.115Z,24.80
2018-09-18T18:37:19.077Z,24.80
2018-09-18T18:39:49.096Z,24.80
2018-09-18T18:42:18.740Z,24.70
2018-09-18T18:44:49.176Z,24.70
2018-09-18T18:47:19.168Z,24.60
2018-09-18T18:49:48.654Z,24.50
2018-09-18T18:52:18.944Z,24.50
2018-09-18T18:54:51.558Z,24.40
2018-09-18T18:57:21.601Z,24.40
2018-09-18T18:59:51.720Z,24.30
2018-09-18T19:02:21.717Z,24.20
2018-09-18T19:04:51.975Z,24.20
2018-09-18T19:07:23.009Z,24.10
2018-09-18T19:09:53.534Z,24.10
2018-09-18T19:12:24.024Z,24.00
2018-09-18T19:14:54.528Z,24.00
2018-09-18T19:17:24.673Z,23.90
2018-09-18T19:19:54.506Z,23.90
2018-09-18T19:22:25.559Z,23.80
2018-09-18T19:24:56.172Z,23.70
2018-09-18T19:27:26.894Z,23.70
2018-09-18T19:29:57.601Z,23.70
2018-09-18T19:32:28.141Z,23.60
2018-09-18T19:34:58.877Z,23.60
2018-09-18T19:37:29.909Z,23.50
2018-09-18T19:40:00.839Z,23.40
2018-09-18T19:42:31.660Z,23.40
2018-09-18T19:45:02.408Z,23.40
2018-09-18T19:47:32.941Z,23.30
2018-09-18T19:50:03.310Z,23.30
2018-09-18T19:52:33.545Z,23.20
2018-09-18T19:55:03.964Z,23.20
2018-09-18T19:57:34.654Z,23.20
2018-09-18T20:00:04.788Z,23.10
2018-09-18T20:02:35.956Z,23.10
2018-09-18T20:05:06.183Z,23.00
2018-09-18T20:07:36.758Z,23.00
2018-09-18T20:10:09.164Z,22.90
2018-09-18T20:12:40.873Z,22.90
2018-09-18T20:15:12.593Z,22.90
2018-09-18T20:17:45.568Z,22.80
2018-09-18T20:20:16.589Z,22.80
2018-09-18T20:22:47.657Z,22.80
2018-09-18T20:25:17.930Z,22.70
2018-09-18T20:27:47.753Z,22.70
2018-09-18T20:30:17.625Z,22.60
2018-09-18T20:32:48.673Z,22.60
2018-09-18T20:35:19.739Z,22.50
2018-09-18T20:37:50.238Z,22.50
2018-09-18T20:40:20.813Z,22.40
2018-09-18T20:42:51.346Z,22.40
2018-09-18T20:45:21.645Z,22.30
2018-09-18T20:47:51.941Z,22.30
2018-09-18T20:50:24.074Z,22.30
2018-09-18T20:52:56.100Z,22.30
2018-09-18T20:55:26.126Z,22.30
2018-09-18T20:58:11.021Z,22.20
2018-09-18T21:00:42.350Z,22.20
2018-09-18T21:03:13.166Z,22.10
2018-09-18T21:05:44.268Z,22.10
2018-09-18T21:08:14.181Z,22.10
2018-09-18T21:10:44.877Z,22.10
2018-09-18T21:13:15.605Z,22.00
2018-09-18T21:15:45.810Z,22.00
2018-09-18T21:18:16.427Z,22.00
2018-09-18T21:20:46.835Z,22.00
2018-09-18T21:23:18.354Z,22.00
2018-09-18T21:26:05.814Z,21.90
2018-09-18T21:28:36.712Z,21.90
2018-09-18T21:31:07.594Z,21.90
2018-09-18T21:33:37.287Z,21.90
2018-09-18T21:36:06.694Z,21.80
2018-09-18T21:38:35.601Z,21.80
2018-09-18T21:41:04.610Z,21.80
2018-09-18T21:43:34.276Z,21.80
2018-09-18T21:46:03.514Z,21.80
2018-09-18T21:48:32.720Z,21.80
2018-09-18T21:51:01.743Z,21.70
2018-09-18T21:53:30.668Z,21.70
2018-09-18T21:55:59.719Z,21.70
2018-09-18T21:58:28.625Z,21.70
2018-09-18T22:00:59.099Z,21.70
2018-09-18T22:03:28.031Z,21.60
2018-09-18T22:05:56.979Z,21.60
2018-09-18T22:08:26.821Z,21.60
2018-09-18T22:10:55.924Z,21.60
2018-09-18T22:13:25.595Z,21.60
2018-09-18T22:15:54.989Z,21.50
2018-09-18T22:18:24.178Z,21.50
2018-09-18T22:20:53.351Z,21.50
2018-09-18T22:23:22.791Z,21.50
2018-09-18T22:25:51.881Z,21.50
2018-09-18T22:28:20.982Z,21.50
2018-09-18T22:30:50.574Z,21.50
2018-09-18T22:33:20.189Z,21.50
2018-09-18T22:35:49.181Z,21.40
2018-09-18T22:38:18.624Z,21.40
2018-09-18T22:40:47.788Z,21.40
2018-09-18T22:43:17.231Z,21.40
2018-09-18T22:45:46.337Z,21.40
2018-09-18T22:48:15.608Z,21.30
2018-09-18T22:50:44.956Z,21.30
2018-09-18T22:53:14.499Z,21.30
2018-09-18T22:55:43.634Z,21.30
2018-09-18T22:58:12.731Z,21.20
2018-09-18T23:00:42.174Z,21.30
2018-09-18T23:03:11.092Z,21.20
2018-09-18T23:05:40.908Z,21.20
2018-09-18T23:08:10.139Z,21.20
2018-09-18T23:10:39.902Z,21.20
2018-09-18T23:13:09.293Z,21.10
2018-09-18T23:15:38.845Z,21.10
2018-09-18T23:18:07.893Z,21.10
2018-09-18T23:20:36.831Z,21.00
2018-09-18T23:23:06.289Z,21.00
2018-09-18T23:25:35.503Z,21.00
2018-09-18T23:28:05.011Z,20.90
2018-09-18T23:30:34.539Z,20.90
2018-09-18T23:33:04.054Z,20.90
2018-09-18T23:35:34.323Z,20.90
2018-09-18T23:38:03.522Z,20.90
2018-09-18T23:40:32.606Z,20.90
2018-09-18T23:43:01.770Z,20.90
2018-09-18T23:45:30.918Z,20.90
2018-09-18T23:47:59.814Z,20.80
2018-09-18T23:50:28.874Z,20.80
2018-09-18T23:52:57.696Z,20.80
2018-09-18T23:55:26.977Z,20.80
2018-09-18T23:57:55.859Z,20.80
